< Cyclone 197616 1976 Season Cyclone 197618 >
Cyclone 197617 (HOPE)
General InformationTrack Information on Google Maps || ResourceGoogle EarthGE AnimationAtom FeedGeoJSON
Detalied Best Track (Time Zone = UTC)
Year Month Day Hour Lat. Long. Pressure (hPa) Wind (kt) Class Image Chart
1976 3 11 00 -19.9 165.3 -1 0 0 -- --
1976 3 11 06 -21.0 164.5 -1 0 0 -- --
1976 3 11 12 -21.9 163.5 -1 0 0 -- --
1976 3 11 18 -23.7 162.8 -1 0 0 -- --
1976 3 12 00 -24.9 162.0 -1 0 0 -- --
1976 3 12 06 -25.2 160.7 -1 0 0 -- --
1976 3 12 12 -25.2 159.4 -1 0 0 -- --
1976 3 12 18 -25.3 157.9 -1 0 0 -- --
1976 3 13 00 -25.5 157.1 -1 0 0 -- --
1976 3 13 06 -25.7 156.8 -1 0 0 -- --
1976 3 13 12 -25.8 156.5 -1 0 0 -- --
1976 3 13 18 -25.8 156.4 -1 0 0 -- --
1976 3 14 00 -25.9 156.0 -1 0 0 -- --
1976 3 14 06 -26.8 155.8 -1 0 0 -- --
1976 3 14 12 -28.1 156.1 -1 0 0 -- --
1976 3 14 18 -29.7 156.4 -1 0 0 -- --
1976 3 15 00 -30.9 157.0 -1 0 0 -- --
1976 3 15 06 -31.1 157.4 -1 0 0 -- --
1976 3 15 12 -31.0 157.8 -1 0 0 -- --
1976 3 15 18 -31.0 158.1 -1 0 0 -- --
1976 3 16 00 -31.0 158.5 -1 0 0 -- --
1976 3 16 06 -31.0 159.1 -1 0 0 -- --
1976 3 16 12 -31.0 159.7 -1 0 0 -- --
1976 3 16 18 -31.2 160.4 -1 0 0 -- --
1976 3 17 00 -31.7 161.0 -1 0 0 -- --
1976 3 17 06 -32.4 161.1 -1 0 0 -- --
1976 3 17 12 -33.1 160.8 -1 0 0 -- --
1976 3 17 18 -33.7 160.4 -1 0 0 -- --
1976 3 18 00 -34.1 159.9 -1 0 0 -- --
1976 3 18 06 -34.2 159.7 -1 0 0 -- --
1976 3 18 12 -34.3 159.4 -1 0 0 -- --
1976 3 18 18 -34.4 159.2 -1 0 0 -- --
1976 3 19 00 -34.4 159.0 -1 0 0 -- --
< Cyclone 197616 1976 Season Cyclone 197618 >

Help